EKSP/SKS METAR and TAF weather

Enter ICAO airport designator
Station Type Date Time Source
EKSP METAR 2018/12/13 15:20 UTC NOAA

EKSP 131520Z 06006KT CAVOK 02/M02 Q1027 TEMPO BKN008


Station Type Date Time Source
EKSP Decoded METAR 2018/12/13 15:20 UTC NOAA

Skrydstrup, Denmark (EKSP) 55-14N 009-16E 47M
Dec 13, 2018 - 10:20 AM EST / 2018.12.13 1520 UTC
Wind: from the ENE (060 degrees) at 7 MPH (6 KT):0
Visibility: greater than 7 mile(s):0
Temperature: 35 F (2 C)
Windchill: 28 F (-2 C):1
Dew Point: 28 F (-2 C)
Relative Humidity: 74%
Pressure (altimeter): 30.33 in. Hg (1027 hPa)
ob: EKSP 131520Z 06006KT CAVOK 02/M02 Q1027 TEMPO BKN008
cycle: 15

Station Type Date Time Source
EKSP TAF 2018/12/13 15:34 UTC NOAA

TAF EKSP 131417Z 1315/1412 07008KT 9999 BKN018
TEMPO 1315/1412 5000 -SHSNRA BKN008 SCT012TCU


Example: see airport list